createdAt,value
2019-04-05T00:00:16.398Z,9.65
2019-04-05T00:00:42.553Z,9.56
2019-04-05T00:01:08.748Z,9.62
2019-04-05T00:01:34.944Z,9.64
2019-04-05T00:02:01.143Z,9.65
2019-04-05T00:02:27.337Z,9.62
2019-04-05T00:02:56.525Z,9.62
2019-04-05T00:03:22.690Z,9.66
2019-04-05T00:03:48.839Z,9.58
2019-04-05T00:04:15.040Z,9.61
2019-04-05T00:04:41.196Z,9.51
2019-04-05T00:05:07.356Z,9.59
2019-04-05T00:05:33.511Z,9.59
2019-04-05T00:05:59.712Z,9.61
2019-04-05T00:06:25.861Z,9.56
2019-04-05T00:06:52.029Z,9.64
2019-04-05T00:07:18.183Z,9.62
2019-04-05T00:07:44.344Z,9.62
2019-04-05T00:08:10.505Z,9.58
2019-04-05T00:08:36.692Z,9.56
2019-04-05T00:09:02.843Z,9.61
2019-04-05T00:09:29.041Z,9.66
2019-04-05T00:09:55.200Z,9.61
2019-04-05T00:10:21.357Z,9.62
2019-04-05T00:10:47.553Z,9.59
2019-04-05T00:11:13.710Z,9.68
2019-04-05T00:11:39.870Z,9.66
2019-04-05T00:12:06.028Z,9.61
2019-04-05T00:12:32.187Z,9.64
2019-04-05T00:12:58.340Z,9.59
2019-04-05T00:13:24.582Z,9.58
2019-04-05T00:13:50.734Z,9.59
2019-04-05T00:14:16.898Z,9.58
2019-04-05T00:14:43.047Z,9.55
2019-04-05T00:15:15.421Z,9.61
2019-04-05T00:15:38.114Z,9.61
2019-04-05T00:16:04.318Z,9.65
2019-04-05T00:16:30.476Z,9.55
2019-04-05T00:16:56.672Z,9.59
2019-04-05T00:17:22.822Z,9.51
2019-04-05T00:17:48.988Z,9.47
2019-04-05T00:18:15.142Z,9.43
2019-04-05T00:18:41.298Z,9.43
2019-04-05T00:19:07.490Z,9.47
2019-04-05T00:19:33.646Z,9.43
2019-04-05T00:19:59.809Z,9.41
2019-04-05T00:20:25.964Z,9.43
2019-04-05T00:20:52.125Z,9.4
2019-04-05T00:21:18.287Z,9.47
2019-04-05T00:21:44.441Z,9.44
2019-04-05T00:22:10.602Z,9.39
2019-04-05T00:22:36.839Z,9.48
2019-04-05T00:23:02.991Z,9.48
2019-04-05T00:23:29.174Z,9.46
2019-04-05T00:23:55.309Z,9.55
2019-04-05T00:24:21.469Z,9.55
2019-04-05T00:24:47.622Z,9.56
2019-04-05T00:25:13.783Z,9.58
2019-04-05T00:25:39.944Z,9.59
2019-04-05T00:26:06.137Z,9.59
2019-04-05T00:26:32.340Z,9.59
2019-04-05T00:26:58.491Z,9.61
2019-04-05T00:27:24.649Z,9.58
2019-04-05T00:27:50.810Z,9.59
2019-04-05T00:28:16.971Z,9.56
2019-04-05T00:28:43.162Z,9.47
2019-04-05T00:29:09.323Z,9.39
2019-04-05T00:29:35.492Z,9.43
2019-04-05T00:30:01.633Z,9.41
2019-04-05T00:30:27.796Z,9.46
2019-04-05T00:30:53.967Z,9.41
2019-04-05T00:31:20.159Z,9.43
2019-04-05T00:31:46.321Z,9.39
2019-04-05T00:32:12.479Z,9.44
2019-04-05T00:32:38.643Z,9.43
2019-04-05T00:33:04.907Z,9.37
2019-04-05T00:33:31.035Z,9.43
2019-04-05T00:33:57.192Z,9.32
2019-04-05T00:34:23.361Z,9.34
2019-04-05T00:34:49.515Z,9.31
2019-04-05T00:35:15.716Z,9.41
2019-04-05T00:35:41.899Z,9.25
2019-04-05T00:36:08.054Z,9.28
2019-04-05T00:36:34.244Z,9.32
2019-04-05T00:37:00.402Z,9.21
2019-04-05T00:37:26.565Z,9.21
2019-04-05T00:37:52.750Z,9.23
2019-04-05T00:38:18.916Z,9.26
2019-04-05T00:38:45.071Z,9.25
2019-04-05T00:39:11.221Z,9.23
2019-04-05T00:39:37.385Z,9.23
2019-04-05T00:40:03.583Z,9.23
2019-04-05T00:40:29.739Z,9.26
2019-04-05T00:40:55.899Z,9.19
2019-04-05T00:41:22.051Z,9.21
2019-04-05T00:41:48.866Z,9.23
2019-04-05T00:42:15.031Z,9.28
2019-04-05T00:42:41.186Z,9.21
2019-04-05T00:43:07.346Z,9.11
2019-04-05T00:43:33.503Z,9.18
2019-04-05T00:43:59.655Z,9.23
2019-04-05T00:44:25.826Z,9.22
2019-04-05T00:44:51.981Z,9.25
2019-04-05T00:45:27.395Z,9.22
2019-04-05T00:45:46.304Z,9.19
2019-04-05T00:46:12.465Z,9.25
2019-04-05T00:46:38.621Z,9.22
2019-04-05T00:47:05.764Z,9.25
2019-04-05T00:47:31.925Z,9.23
2019-04-05T00:47:58.080Z,9.19
2019-04-05T00:48:24.245Z,9.08
2019-04-05T00:48:50.432Z,9.19
2019-04-05T00:49:16.593Z,9.18
2019-04-05T00:49:42.747Z,9.25
2019-04-05T00:50:08.957Z,9.11
2019-04-05T00:50:35.092Z,9.19
2019-04-05T00:51:01.258Z,9.11
2019-04-05T00:51:27.446Z,9.16
2019-04-05T00:51:53.649Z,9.11
2019-04-05T00:52:19.809Z,9.22
2019-04-05T00:52:45.962Z,9.23
2019-04-05T00:53:12.118Z,9.22
2019-04-05T00:53:38.285Z,9.22
2019-04-05T00:54:04.482Z,9.22
2019-04-05T00:54:30.676Z,9.25
2019-04-05T00:54:56.833Z,9.16
2019-04-05T00:55:22.987Z,9.23
2019-04-05T00:55:49.185Z,9.22
2019-04-05T00:56:15.334Z,9.14
2019-04-05T00:56:41.493Z,9.16
2019-04-05T00:57:07.691Z,9.16
2019-04-05T00:57:33.890Z,9.06
2019-04-05T00:58:00.084Z,9.08
2019-04-05T00:58:26.236Z,9.04
2019-04-05T00:58:52.389Z,9.06
2019-04-05T00:59:18.585Z,9.14
2019-04-05T00:59:44.743Z,9.21
2019-04-05T01:00:10.897Z,9.08
2019-04-05T01:00:37.051Z,9.16
2019-04-05T01:01:03.289Z,9.13
2019-04-05T01:01:29.497Z,9.16
2019-04-05T01:01:55.686Z,9.13
2019-04-05T01:02:21.878Z,9.11
2019-04-05T01:02:48.033Z,9.08
2019-04-05T01:03:14.240Z,9.03
2019-04-05T01:03:40.402Z,9.13
2019-04-05T01:04:06.557Z,9.11
2019-04-05T01:04:32.712Z,9.18
2019-04-05T01:04:58.902Z,9.11
2019-04-05T01:05:25.067Z,9.13
2019-04-05T01:05:51.221Z,9.14
2019-04-05T01:06:17.376Z,9.18
2019-04-05T01:06:43.581Z,9.22
2019-04-05T01:07:09.740Z,9.21
2019-04-05T01:07:35.898Z,9.23
2019-04-05T01:08:02.058Z,9.14
2019-04-05T01:08:28.249Z,9.08
2019-04-05T01:08:54.410Z,9.13
2019-04-05T01:09:20.564Z,9.13
2019-04-05T01:09:46.723Z,9.11
2019-04-05T01:10:12.918Z,9.21
2019-04-05T01:10:39.074Z,9.18
2019-04-05T01:11:05.280Z,9.13
2019-04-05T01:11:31.442Z,9.18
2019-04-05T01:11:57.605Z,9.19
2019-04-05T01:12:23.761Z,9.23
2019-04-05T01:12:49.917Z,9.29
2019-04-05T01:13:16.078Z,9.14
2019-04-05T01:13:42.240Z,9.23
2019-04-05T01:14:08.398Z,9.21
2019-04-05T01:14:34.588Z,9.14
2019-04-05T01:15:00.751Z,9.1
2019-04-05T01:15:26.946Z,9.11
2019-04-05T01:15:54.136Z,9.1
2019-04-05T01:16:20.333Z,9.14
2019-04-05T01:16:46.521Z,9.14
2019-04-05T01:17:24.127Z,9.14
2019-04-05T01:17:41.139Z,9.21
2019-04-05T01:18:07.289Z,9.25
2019-04-05T01:18:33.448Z,9.22
2019-04-05T01:18:59.606Z,9.23
2019-04-05T01:19:25.765Z,9.25
2019-04-05T01:19:51.921Z,9.21
2019-04-05T01:20:18.082Z,9.25
2019-04-05T01:20:44.240Z,9.22
2019-04-05T01:21:10.397Z,9.19
2019-04-05T01:21:36.555Z,9.13
2019-04-05T01:22:02.713Z,9.08
2019-04-05T01:22:28.860Z,9.22
2019-04-05T01:22:55.025Z,9.23
2019-04-05T01:23:21.215Z,9.22
2019-04-05T01:23:47.374Z,9.26
2019-04-05T01:24:13.524Z,9.23
2019-04-05T01:24:39.683Z,9.29
2019-04-05T01:25:05.847Z,9.36
2019-04-05T01:25:32.008Z,9.28
2019-04-05T01:25:58.158Z,9.36
2019-04-05T01:26:24.326Z,9.36
2019-04-05T01:26:50.480Z,9.29
2019-04-05T01:27:16.638Z,9.36
2019-04-05T01:27:42.801Z,9.37
2019-04-05T01:28:09.524Z,9.5
2019-04-05T01:28:35.677Z,9.44
2019-04-05T01:29:01.877Z,9.39
2019-04-05T01:29:28.032Z,9.47
2019-04-05T01:29:54.192Z,9.44
2019-04-05T01:30:20.354Z,9.44
2019-04-05T01:30:46.556Z,9.47
2019-04-05T01:31:12.748Z,9.47
2019-04-05T01:31:38.906Z,9.55
2019-04-05T01:32:05.067Z,9.55
2019-04-05T01:32:31.224Z,9.47
2019-04-05T01:32:57.421Z,9.4
2019-04-05T01:33:23.582Z,9.58
2019-04-05T01:33:49.736Z,9.46
2019-04-05T01:34:16.278Z,9.48
2019-04-05T01:34:42.522Z,9.47
2019-04-05T01:35:08.669Z,9.46
2019-04-05T01:35:34.819Z,9.48
2019-04-05T01:36:00.982Z,9.5
2019-04-05T01:36:27.148Z,9.47
2019-04-05T01:36:53.332Z,9.46
2019-04-05T01:37:19.485Z,9.43
2019-04-05T01:37:45.651Z,9.43
2019-04-05T01:38:11.811Z,9.43
2019-04-05T01:38:38.007Z,9.29
2019-04-05T01:39:04.159Z,9.28
2019-04-05T01:39:30.323Z,9.21
2019-04-05T01:39:56.480Z,9.23
2019-04-05T01:40:22.675Z,9.34
2019-04-05T01:40:48.901Z,9.34
2019-04-05T01:41:15.054Z,9.32
2019-04-05T01:41:41.210Z,9.34
2019-04-05T01:42:07.410Z,9.23
2019-04-05T01:42:33.681Z,9.19
2019-04-05T01:42:59.839Z,9.19
2019-04-05T01:43:25.997Z,9.26
2019-04-05T01:43:52.149Z,9.29
2019-04-05T01:44:18.347Z,9.26
2019-04-05T01:44:44.558Z,9.23
2019-04-05T01:45:11.736Z,9.32
2019-04-05T01:45:37.894Z,9.29
2019-04-05T01:46:05.081Z,9.34
2019-04-05T01:46:31.242Z,9.4
2019-04-05T01:46:57.394Z,9.41
2019-04-05T01:47:23.559Z,9.31
2019-04-05T01:47:49.714Z,9.4
2019-04-05T01:48:15.873Z,9.43
2019-04-05T01:48:42.030Z,9.29
2019-04-05T01:49:08.188Z,9.39
2019-04-05T01:49:34.376Z,9.41
2019-04-05T01:50:00.540Z,9.46
2019-04-05T01:50:26.728Z,9.46
2019-04-05T01:50:52.891Z,9.43
2019-04-05T01:51:19.049Z,9.43
2019-04-05T01:51:45.207Z,9.44
2019-04-05T01:52:11.364Z,9.41
2019-04-05T01:52:37.580Z,9.41
2019-04-05T01:53:03.737Z,9.41
2019-04-05T01:53:29.900Z,9.43
2019-04-05T01:53:56.054Z,9.41
2019-04-05T01:54:22.214Z,9.47
2019-04-05T01:54:49.357Z,9.46
2019-04-05T01:55:15.517Z,9.51
2019-04-05T01:55:41.710Z,9.44
2019-04-05T01:56:07.880Z,9.46
2019-04-05T01:56:34.039Z,9.39
2019-04-05T01:57:00.201Z,9.43
2019-04-05T01:57:26.404Z,9.5
2019-04-05T01:57:52.565Z,9.46
2019-04-05T01:58:18.721Z,9.56
2019-04-05T01:58:44.883Z,9.58
2019-04-05T01:59:11.039Z,9.55
2019-04-05T01:59:37.194Z,9.56
2019-04-05T02:00:03.392Z,9.58
2019-04-05T02:00:29.574Z,9.56
2019-04-05T02:00:55.761Z,9.66
2019-04-05T02:01:21.889Z,9.64
2019-04-05T02:01:48.079Z,9.65
2019-04-05T02:02:14.242Z,9.62
2019-04-05T02:02:40.437Z,9.72
2019-04-05T02:03:06.595Z,9.65
2019-04-05T02:03:32.792Z,9.64
2019-04-05T02:03:58.951Z,9.62
2019-04-05T02:04:25.111Z,9.64
2019-04-05T02:04:52.751Z,9.73
2019-04-05T02:05:18.415Z,9.66
2019-04-05T02:05:44.583Z,9.62
2019-04-05T02:06:10.792Z,9.65
2019-04-05T02:06:36.915Z,9.61
2019-04-05T02:07:03.108Z,9.59
2019-04-05T02:07:29.270Z,9.58
2019-04-05T02:07:55.497Z,9.62
2019-04-05T02:08:21.658Z,9.65
2019-04-05T02:08:47.816Z,9.62
2019-04-05T02:09:13.971Z,9.56
2019-04-05T02:09:40.129Z,9.66
2019-04-05T02:10:06.287Z,9.66
2019-04-05T02:10:32.494Z,9.72
2019-04-05T02:10:58.646Z,9.61
2019-04-05T02:11:24.849Z,9.62
2019-04-05T02:11:51.004Z,9.56
2019-04-05T02:12:17.165Z,9.59
2019-04-05T02:12:43.324Z,9.65
2019-04-05T02:13:09.485Z,9.64
2019-04-05T02:13:35.638Z,9.65
2019-04-05T02:14:01.828Z,9.64
2019-04-05T02:14:27.987Z,9.61
2019-04-05T02:14:54.152Z,9.62
2019-04-05T02:15:20.303Z,9.66
2019-04-05T02:15:46.463Z,9.61
2019-04-05T02:16:13.727Z,9.56
2019-04-05T02:16:39.887Z,9.56
2019-04-05T02:17:06.044Z,9.55
2019-04-05T02:17:32.233Z,9.65
2019-04-05T02:17:58.392Z,9.64
2019-04-05T02:18:24.549Z,9.59
2019-04-05T02:18:50.709Z,9.64
2019-04-05T02:19:16.867Z,9.56
2019-04-05T02:19:43.023Z,9.64
2019-04-05T02:20:09.215Z,9.58
2019-04-05T02:20:35.383Z,9.58
2019-04-05T02:21:01.574Z,9.56
2019-04-05T02:21:27.774Z,9.65
2019-04-05T02:21:53.925Z,9.54
2019-04-05T02:22:20.083Z,9.56
2019-04-05T02:22:46.242Z,9.66
2019-04-05T02:23:12.393Z,9.61
2019-04-05T02:23:38.559Z,9.61
2019-04-05T02:24:04.713Z,9.66
2019-04-05T02:24:30.865Z,9.56
2019-04-05T02:24:57.054Z,9.61
2019-04-05T02:25:23.214Z,9.66
2019-04-05T02:25:49.374Z,9.62
2019-04-05T02:26:15.574Z,9.72
2019-04-05T02:26:41.734Z,9.73
2019-04-05T02:27:07.893Z,9.68
2019-04-05T02:27:34.051Z,9.76
2019-04-05T02:28:00.246Z,9.74
2019-04-05T02:28:26.410Z,9.73
2019-04-05T02:28:52.560Z,9.76
2019-04-05T02:29:18.715Z,9.68
2019-04-05T02:29:44.911Z,9.58
2019-04-05T02:30:11.158Z,9.64
2019-04-05T02:30:37.417Z,9.74
2019-04-05T02:31:03.651Z,9.77
2019-04-05T02:31:29.924Z,9.68
2019-04-05T02:31:56.108Z,9.74
2019-04-05T02:32:22.305Z,9.69
2019-04-05T02:32:48.543Z,9.76
2019-04-05T02:33:14.783Z,9.77
2019-04-05T02:33:40.938Z,9.74
2019-04-05T02:34:07.206Z,9.79
2019-04-05T02:34:33.387Z,9.8
2019-04-05T02:34:59.585Z,9.83
2019-04-05T02:35:25.764Z,9.83
2019-04-05T02:35:51.967Z,9.91
2019-04-05T02:36:18.164Z,9.87
2019-04-05T02:36:44.358Z,9.82
2019-04-05T02:37:10.590Z,9.82
2019-04-05T02:37:36.790Z,9.95
2019-04-05T02:38:02.990Z,9.97
2019-04-05T02:38:29.149Z,9.8
2019-04-05T02:38:55.383Z,9.91
2019-04-05T02:39:21.577Z,9.82
2019-04-05T02:39:47.820Z,9.77
2019-04-05T02:40:13.982Z,9.83
2019-04-05T02:40:40.174Z,9.77
2019-04-05T02:41:07.327Z,9.83
2019-04-05T02:41:33.520Z,9.8
2019-04-05T02:41:59.769Z,9.79
2019-04-05T02:42:26.053Z,9.84
2019-04-05T02:42:52.241Z,9.82
2019-04-05T02:43:18.398Z,9.82
2019-04-05T02:43:44.598Z,9.74
2019-04-05T02:44:10.787Z,9.86
2019-04-05T02:44:36.948Z,9.8
2019-04-05T02:45:03.108Z,9.92
2019-04-05T02:45:29.305Z,9.87
2019-04-05T02:45:55.505Z,9.87
2019-04-05T02:46:24.640Z,9.82
2019-04-05T02:46:50.829Z,9.86
2019-04-05T02:47:17.023Z,9.84
2019-04-05T02:47:43.265Z,9.74
2019-04-05T02:48:10.401Z,9.8
2019-04-05T02:48:36.637Z,9.79
2019-04-05T02:49:02.824Z,9.72
2019-04-05T02:49:28.988Z,9.73
2019-04-05T02:49:55.185Z,9.77
2019-04-05T02:50:21.302Z,9.77
2019-04-05T02:50:47.454Z,9.86
2019-04-05T02:51:13.578Z,9.86
2019-04-05T02:51:39.747Z,9.74
2019-04-05T02:52:05.900Z,9.77
2019-04-05T02:52:32.075Z,9.69
2019-04-05T02:52:58.222Z,9.64
2019-04-05T02:53:24.499Z,9.58
2019-04-05T02:53:50.640Z,9.61
2019-04-05T02:54:16.826Z,9.62
2019-04-05T02:54:43.028Z,9.66
2019-04-05T02:55:09.225Z,9.66
2019-04-05T02:55:35.351Z,9.72
2019-04-05T02:56:03.096Z,9.68
2019-04-05T02:56:28.620Z,9.68
2019-04-05T02:56:54.760Z,9.65
2019-04-05T02:57:20.924Z,9.65
2019-04-05T02:57:47.099Z,9.64
2019-04-05T02:58:13.247Z,9.58
2019-04-05T02:58:39.383Z,9.54
2019-04-05T02:59:05.575Z,9.64
2019-04-05T02:59:31.673Z,9.61
2019-04-05T02:59:57.871Z,9.54
2019-04-05T03:00:23.981Z,9.54
2019-04-05T03:00:50.087Z,9.58
2019-04-05T03:01:16.217Z,9.56
2019-04-05T03:01:43.326Z,9.5
2019-04-05T03:02:09.547Z,9.47
2019-04-05T03:02:35.679Z,9.41
2019-04-05T03:03:01.844Z,9.41
2019-04-05T03:03:28.014Z,9.41
2019-04-05T03:03:54.134Z,9.46
2019-04-05T03:04:20.294Z,9.41
2019-04-05T03:04:46.442Z,9.44
2019-04-05T03:05:12.590Z,9.4
2019-04-05T03:05:38.753Z,9.5
2019-04-05T03:06:04.912Z,9.51
2019-04-05T03:06:31.046Z,9.46
2019-04-05T03:06:57.177Z,9.56
2019-04-05T03:07:23.289Z,9.51
2019-04-05T03:07:49.437Z,9.47
2019-04-05T03:08:15.587Z,9.41
2019-04-05T03:08:41.745Z,9.43
2019-04-05T03:09:07.901Z,9.36
2019-04-05T03:09:33.991Z,9.47
2019-04-05T03:10:00.153Z,9.34
2019-04-05T03:10:26.312Z,9.28
2019-04-05T03:10:52.437Z,9.39
2019-04-05T03:11:18.613Z,9.44
2019-04-05T03:11:44.711Z,9.44
2019-04-05T03:12:10.900Z,9.5
2019-04-05T03:12:38.038Z,9.48
2019-04-05T03:13:04.203Z,9.46
2019-04-05T03:13:30.411Z,9.44
2019-04-05T03:13:56.464Z,9.48
2019-04-05T03:14:22.596Z,9.44
2019-04-05T03:14:48.704Z,9.44
2019-04-05T03:15:14.832Z,9.34
2019-04-05T03:15:40.966Z,9.29
2019-04-05T03:16:07.126Z,9.34
2019-04-05T03:16:40.533Z,9.34
2019-04-05T03:17:03.027Z,9.32
2019-04-05T03:17:29.149Z,9.29
2019-04-05T03:17:55.276Z,9.31
2019-04-05T03:18:21.410Z,9.36
2019-04-05T03:18:47.527Z,9.32
2019-04-05T03:19:13.683Z,9.39
2019-04-05T03:19:39.825Z,9.34
2019-04-05T03:20:05.949Z,9.43
2019-04-05T03:20:32.112Z,9.44
2019-04-05T03:20:58.263Z,9.43
2019-04-05T03:21:24.381Z,9.43
2019-04-05T03:21:50.536Z,9.46
2019-04-05T03:22:16.643Z,9.44
2019-04-05T03:22:42.785Z,9.41
2019-04-05T03:23:08.920Z,9.44
2019-04-05T03:23:35.063Z,9.4
2019-04-05T03:24:01.217Z,9.36
2019-04-05T03:24:27.402Z,9.4
2019-04-05T03:24:53.553Z,9.43
2019-04-05T03:25:19.662Z,9.43
2019-04-05T03:25:48.124Z,9.46
2019-04-05T03:26:11.994Z,9.47
2019-04-05T03:26:38.127Z,9.47
2019-04-05T03:27:04.274Z,9.5
2019-04-05T03:27:30.429Z,9.43
2019-04-05T03:27:56.583Z,9.34
2019-04-05T03:28:22.688Z,9.36
2019-04-05T03:28:48.799Z,9.4
2019-04-05T03:29:14.931Z,9.37
2019-04-05T03:29:41.095Z,9.46
2019-04-05T03:30:07.416Z,9.29
2019-04-05T03:30:33.585Z,9.46
2019-04-05T03:30:59.780Z,9.43
2019-04-05T03:31:26.902Z,9.43
2019-04-05T03:31:53.118Z,9.32
2019-04-05T03:32:19.277Z,9.43
2019-04-05T03:32:45.413Z,9.39
2019-04-05T03:33:11.555Z,9.44
2019-04-05T03:33:37.718Z,9.34
2019-04-05T03:34:03.854Z,9.32
2019-04-05T03:34:30.041Z,9.34
2019-04-05T03:34:56.156Z,9.37
2019-04-05T03:35:22.266Z,9.41
2019-04-05T03:35:48.433Z,9.36
2019-04-05T03:36:14.563Z,9.44
2019-04-05T03:36:40.758Z,9.31
2019-04-05T03:37:07.595Z,9.31
2019-04-05T03:37:33.767Z,9.36
2019-04-05T03:37:59.876Z,9.31
2019-04-05T03:38:26.039Z,9.21
2019-04-05T03:38:52.176Z,9.25
2019-04-05T03:39:18.312Z,9.23
2019-04-05T03:39:44.502Z,9.23
2019-04-05T03:40:10.610Z,9.21
2019-04-05T03:40:36.770Z,9.22
2019-04-05T03:41:02.885Z,9.26
2019-04-05T03:41:29.049Z,9.36
2019-04-05T03:41:55.198Z,9.31
2019-04-05T03:42:21.308Z,9.23
2019-04-05T03:42:47.427Z,9.23
2019-04-05T03:43:13.568Z,9.22
2019-04-05T03:43:39.726Z,9.28
2019-04-05T03:44:05.865Z,9.26
2019-04-05T03:44:32.046Z,9.26
2019-04-05T03:44:58.280Z,9.36
2019-04-05T03:45:24.418Z,9.37
2019-04-05T03:45:50.551Z,9.28
2019-04-05T03:46:16.723Z,9.22
2019-04-05T03:46:55.192Z,9.14
2019-04-05T03:47:10.953Z,9.28
2019-04-05T03:47:37.101Z,9.23
2019-04-05T03:48:03.235Z,9.26
2019-04-05T03:48:29.342Z,9.34
2019-04-05T03:48:55.505Z,9.29
2019-04-05T03:49:21.580Z,9.36
2019-04-05T03:49:47.728Z,9.32
2019-04-05T03:50:13.815Z,9.29
2019-04-05T03:50:39.926Z,9.29
2019-04-05T03:51:06.476Z,9.31
2019-04-05T03:51:32.609Z,9.39
2019-04-05T03:51:58.776Z,9.34
2019-04-05T03:52:24.975Z,9.36
2019-04-05T03:52:51.080Z,9.36
2019-04-05T03:53:17.249Z,9.41
2019-04-05T03:53:43.431Z,9.28
2019-04-05T03:54:09.565Z,9.37
2019-04-05T03:54:35.754Z,9.32
2019-04-05T03:55:01.893Z,9.31
2019-04-05T03:55:28.054Z,9.26
2019-04-05T03:55:54.193Z,9.29
2019-04-05T03:56:20.295Z,9.26
2019-04-05T03:56:47.390Z,9.21
2019-04-05T03:57:13.498Z,9.23
2019-04-05T03:57:39.637Z,9.21
2019-04-05T03:58:05.744Z,9.29
2019-04-05T03:58:31.917Z,9.28
2019-04-05T03:58:57.982Z,9.29
2019-04-05T03:59:24.123Z,9.36
2019-04-05T03:59:50.219Z,9.34
2019-04-05T04:00:16.362Z,9.37
2019-04-05T04:00:42.505Z,9.32
2019-04-05T04:01:08.623Z,9.36
2019-04-05T04:01:34.755Z,9.39
2019-04-05T04:02:00.891Z,9.32
2019-04-05T04:02:27.997Z,9.36
2019-04-05T04:02:54.150Z,9.34
2019-04-05T04:03:20.261Z,9.41
2019-04-05T04:03:46.366Z,9.39
2019-04-05T04:04:12.593Z,9.41
2019-04-05T04:04:38.702Z,9.39
2019-04-05T04:05:04.892Z,9.32
2019-04-05T04:05:31.031Z,9.31
2019-04-05T04:05:57.186Z,9.31
2019-04-05T04:06:23.425Z,9.29
2019-04-05T04:06:51.146Z,9.28
2019-04-05T04:07:17.247Z,9.26
2019-04-05T04:07:43.648Z,9.25
2019-04-05T04:08:09.807Z,9.26
2019-04-05T04:08:36.944Z,9.25
2019-04-05T04:09:03.058Z,9.34
2019-04-05T04:09:29.239Z,9.39
2019-04-05T04:09:55.352Z,9.34
2019-04-05T04:10:21.508Z,9.34
2019-04-05T04:10:47.647Z,9.36
2019-04-05T04:11:13.846Z,9.28
2019-04-05T04:11:40.018Z,9.36
2019-04-05T04:12:06.212Z,9.36
2019-04-05T04:12:32.352Z,9.25
2019-04-05T04:12:58.461Z,9.25
2019-04-05T04:13:24.621Z,9.29
2019-04-05T04:13:50.759Z,9.37
2019-04-05T04:14:16.903Z,9.39
2019-04-05T04:14:43.075Z,9.39
2019-04-05T04:15:09.151Z,9.32
2019-04-05T04:15:35.844Z,9.31
2019-04-05T04:16:01.985Z,9.34
2019-04-05T04:16:28.126Z,9.36
2019-04-05T04:16:54.264Z,9.43
2019-04-05T04:17:23.346Z,9.34
2019-04-05T04:17:49.488Z,9.36
2019-04-05T04:18:15.585Z,9.31
2019-04-05T04:18:41.736Z,9.29
2019-04-05T04:19:07.851Z,9.36
2019-04-05T04:19:33.965Z,9.37
2019-04-05T04:20:00.079Z,9.37
2019-04-05T04:20:26.191Z,9.23
2019-04-05T04:20:52.325Z,9.37
2019-04-05T04:21:18.469Z,9.25
2019-04-05T04:21:44.654Z,9.25
2019-04-05T04:22:10.793Z,9.23
2019-04-05T04:22:36.957Z,9.29
2019-04-05T04:23:04.054Z,9.28
2019-04-05T04:23:30.191Z,9.32
2019-04-05T04:23:56.357Z,9.32
2019-04-05T04:24:22.481Z,9.36
2019-04-05T04:24:48.615Z,9.29
2019-04-05T04:25:14.788Z,9.31
2019-04-05T04:25:40.960Z,9.34
2019-04-05T04:26:07.097Z,9.32
2019-04-05T04:26:33.235Z,9.37
2019-04-05T04:26:59.404Z,9.37
2019-04-05T04:27:25.518Z,9.34
2019-04-05T04:27:51.644Z,9.31
2019-04-05T04:28:17.759Z,9.41
2019-04-05T04:28:43.848Z,9.43
2019-04-05T04:29:09.976Z,9.48
2019-04-05T04:29:36.206Z,9.28
2019-04-05T04:30:02.350Z,9.34
2019-04-05T04:30:28.522Z,9.31
2019-04-05T04:30:54.681Z,9.36
2019-04-05T04:31:20.807Z,9.37
2019-04-05T04:31:46.916Z,9.39
2019-04-05T04:32:13.024Z,9.32
2019-04-05T04:32:39.149Z,9.4
2019-04-05T04:33:05.252Z,9.43
2019-04-05T04:33:31.399Z,9.4
2019-04-05T04:33:57.500Z,9.43
2019-04-05T04:34:23.641Z,9.43
2019-04-05T04:34:49.788Z,9.44
2019-04-05T04:35:15.916Z,9.46
2019-04-05T04:35:42.052Z,9.47
2019-04-05T04:36:08.158Z,9.55
2019-04-05T04:36:34.350Z,9.41
2019-04-05T04:37:00.481Z,9.41
2019-04-05T04:37:26.615Z,9.32
2019-04-05T04:37:52.721Z,9.43
2019-04-05T04:38:18.953Z,9.43
2019-04-05T04:38:45.167Z,9.46
2019-04-05T04:39:11.307Z,9.43
2019-04-05T04:39:37.482Z,9.48
2019-04-05T04:40:03.624Z,9.44
2019-04-05T04:40:29.769Z,9.43
2019-04-05T04:40:55.905Z,9.44
2019-04-05T04:41:22.065Z,9.4
2019-04-05T04:41:48.175Z,9.48
2019-04-05T04:42:14.330Z,9.48
2019-04-05T04:42:40.443Z,9.48
2019-04-05T04:43:06.551Z,9.44
2019-04-05T04:43:32.719Z,9.43
2019-04-05T04:43:58.823Z,9.47
2019-04-05T04:44:24.934Z,9.46
2019-04-05T04:44:51.076Z,9.41
2019-04-05T04:45:17.317Z,9.4
2019-04-05T04:45:44.142Z,9.37
2019-04-05T04:46:10.250Z,9.41
2019-04-05T04:46:36.358Z,9.32
2019-04-05T04:47:03.523Z,9.34
2019-04-05T04:47:31.615Z,9.4
2019-04-05T04:47:57.726Z,9.37
2019-04-05T04:48:23.834Z,9.41
2019-04-05T04:48:49.980Z,9.41
2019-04-05T04:49:16.087Z,9.4
2019-04-05T04:49:42.220Z,9.41
2019-04-05T04:50:08.388Z,9.44
2019-04-05T04:50:34.544Z,9.43
2019-04-05T04:51:00.643Z,9.5
2019-04-05T04:51:26.753Z,9.41
2019-04-05T04:51:52.890Z,9.51
2019-04-05T04:52:19.027Z,9.48
2019-04-05T04:52:45.190Z,9.44
2019-04-05T04:53:11.298Z,9.44
2019-04-05T04:53:37.416Z,9.43
2019-04-05T04:54:03.514Z,9.51
2019-04-05T04:54:29.625Z,9.51
2019-04-05T04:54:55.737Z,9.41
2019-04-05T04:55:21.864Z,9.4
2019-04-05T04:55:47.972Z,9.4
2019-04-05T04:56:14.083Z,9.41
2019-04-05T04:56:40.230Z,9.41
2019-04-05T04:57:06.331Z,9.41
2019-04-05T04:57:32.440Z,9.5
2019-04-05T04:57:58.544Z,9.5
2019-04-05T04:58:24.661Z,9.48
2019-04-05T04:58:51.631Z,9.55
2019-04-05T04:59:17.756Z,9.5
2019-04-05T04:59:43.861Z,9.55
2019-04-05T05:00:09.966Z,9.56
2019-04-05T05:00:36.074Z,9.56
2019-04-05T05:01:02.178Z,9.61
2019-04-05T05:01:28.288Z,9.59
2019-04-05T05:01:54.435Z,9.59
2019-04-05T05:02:20.572Z,9.61
2019-04-05T05:02:46.725Z,9.5
2019-04-05T05:03:12.838Z,9.51
2019-04-05T05:03:38.936Z,9.48
2019-04-05T05:04:08.000Z,9.51
2019-04-05T05:04:31.175Z,9.47
2019-04-05T05:04:57.284Z,9.48
2019-04-05T05:05:23.397Z,9.44
2019-04-05T05:05:49.505Z,9.48
2019-04-05T05:06:15.610Z,9.47
2019-04-05T05:06:41.721Z,9.47
2019-04-05T05:07:07.836Z,9.48
2019-04-05T05:07:33.969Z,9.48
2019-04-05T05:08:00.091Z,9.56
2019-04-05T05:08:26.185Z,9.59
2019-04-05T05:08:52.312Z,9.48
2019-04-05T05:09:18.443Z,9.41
2019-04-05T05:09:44.694Z,9.48
2019-04-05T05:10:11.750Z,9.44
2019-04-05T05:10:37.917Z,9.41
2019-04-05T05:11:13.835Z,9.5
2019-04-05T05:11:32.181Z,9.44
2019-04-05T05:11:58.323Z,9.55
2019-04-05T05:12:24.429Z,9.41
2019-04-05T05:12:50.571Z,9.46
2019-04-05T05:13:16.698Z,9.44
2019-04-05T05:13:42.894Z,9.4
2019-04-05T05:14:09.193Z,9.37
2019-04-05T05:14:35.247Z,9.41
2019-04-05T05:15:01.359Z,9.39
2019-04-05T05:15:27.560Z,9.43
2019-04-05T05:15:53.649Z,9.51
2019-04-05T05:16:19.787Z,9.48
2019-04-05T05:16:45.884Z,9.47
2019-04-05T05:17:12.052Z,9.44
2019-04-05T05:17:40.149Z,9.46
2019-04-05T05:18:09.219Z,9.43
2019-04-05T05:18:35.331Z,9.43
2019-04-05T05:19:01.436Z,9.46
2019-04-05T05:19:27.574Z,9.44
2019-04-05T05:19:53.680Z,9.48
2019-04-05T05:20:19.795Z,9.46
2019-04-05T05:20:46.917Z,9.41
2019-04-05T05:21:13.057Z,9.48
2019-04-05T05:21:39.187Z,9.48
2019-04-05T05:22:05.294Z,9.36
2019-04-05T05:22:31.408Z,9.44
2019-04-05T05:22:57.514Z,9.43
2019-04-05T05:23:23.620Z,9.39
2019-04-05T05:23:49.727Z,9.34
2019-04-05T05:24:15.864Z,9.41
2019-04-05T05:24:42.137Z,9.4
2019-04-05T05:25:08.248Z,9.44
2019-04-05T05:25:34.352Z,9.47
2019-04-05T05:26:01.461Z,9.47
2019-04-05T05:26:27.587Z,9.47
2019-04-05T05:26:53.697Z,9.48
2019-04-05T05:27:19.837Z,9.48
2019-04-05T05:27:45.942Z,9.48
2019-04-05T05:28:12.053Z,9.47
2019-04-05T05:28:38.221Z,9.48
2019-04-05T05:29:04.347Z,9.48
2019-04-05T05:29:30.445Z,9.44
2019-04-05T05:29:56.587Z,9.54
2019-04-05T05:30:22.727Z,9.51
2019-04-05T05:30:48.867Z,9.43
2019-04-05T05:31:14.978Z,9.4
2019-04-05T05:31:41.083Z,9.43
2019-04-05T05:32:09.631Z,9.4
2019-04-05T05:32:34.317Z,9.48
2019-04-05T05:33:00.430Z,9.48
2019-04-05T05:33:26.541Z,9.46
2019-04-05T05:33:52.639Z,9.48
2019-04-05T05:34:18.752Z,9.47
2019-04-05T05:34:44.864Z,9.54
2019-04-05T05:35:12.995Z,9.48
2019-04-05T05:35:39.132Z,9.48
2019-04-05T05:36:05.288Z,9.44
2019-04-05T05:36:31.654Z,9.47
2019-04-05T05:36:57.788Z,9.41
2019-04-05T05:37:23.896Z,9.43
2019-04-05T05:37:50.031Z,9.41
2019-04-05T05:38:16.139Z,9.39
2019-04-05T05:38:42.242Z,9.36
2019-04-05T05:39:08.346Z,9.39
2019-04-05T05:39:34.451Z,9.36
2019-04-05T05:40:00.557Z,9.26
2019-04-05T05:40:34.498Z,9.37
2019-04-05T05:40:54.801Z,9.37
2019-04-05T05:41:20.902Z,9.4
2019-04-05T05:41:47.012Z,9.39
2019-04-05T05:42:13.122Z,9.43
2019-04-05T05:42:39.228Z,9.4
2019-04-05T05:43:05.343Z,9.34
2019-04-05T05:43:32.443Z,9.29
2019-04-05T05:43:58.552Z,9.4
2019-04-05T05:44:24.661Z,9.28
2019-04-05T05:44:50.761Z,9.23
2019-04-05T05:45:16.908Z,9.28
2019-04-05T05:45:43.040Z,9.31
2019-04-05T05:46:09.147Z,9.36
2019-04-05T05:46:35.416Z,9.32
2019-04-05T05:47:01.527Z,9.4
2019-04-05T05:47:27.637Z,9.28
2019-04-05T05:47:53.839Z,9.29
2019-04-05T05:48:19.921Z,9.37
2019-04-05T05:48:46.692Z,9.31
2019-04-05T05:49:12.829Z,9.31
2019-04-05T05:49:38.934Z,9.41